Monday, June 25, 2018, 12:45 AM GMT
Back to Local

CWSS, St. Stephen, N. B.

Location: , , Canada Lat: 45.217
Local Time: 12:45 AM GMT ( 0:45 GMT) Lon: -67.25
Time Zone: GMT Elev: 85 ft

Show me the last for .
Show Coded

Time T Td Feel RH Dir Speed Gust Alt SLP Vis Weather Sky Remarks
2018-06-25 00:00 66 61 - 84 - Calm - - 29.80 0 None
2018-06-24 23:00 68 59 - 72 250° 2 - - 29.79 0 None
2018-06-24 22:00 70 59 76 68 320° 2 - - 29.78 0 None
2018-06-24 21:00 72 60 76 65 310° 3 - - 29.77 0 None
2018-06-24 20:00 74 59 77 59 330° 3 - - 29.75 0 None
2018-06-24 19:00 73 58 77 59 250° 5 - - 29.75 0 None
2018-06-24 18:00 72 56 76 56 290° 5 - - 29.75 0 None
2018-06-24 17:00 69 53 - 56 240° 7 - - 29.76 0 None
2018-06-24 16:00 69 52 - 54 260° 6 - - 29.75 0 None
2018-06-24 15:00 67 53 - 61 260° 6 - - 29.75 0 None
2018-06-24 14:00 63 54 - 71 240° 6 - - 29.77 0 None
2018-06-24 13:00 61 53 - 76 220° 5 - - 29.76 0 None
2018-06-24 12:00 58 53 - 81 270° 3 - - 29.76 0 None
2018-06-24 11:00 55 52 - 88 300° 3 - - 29.75 0 None
2018-06-24 10:00 53 51 - 92 310° 1 - - 29.75 0 None
2018-06-24 09:00 52 51 - 94 270° 2 - - 29.75 0 None
2018-06-24 08:00 53 51 - 94 280° 2 - - 29.74 0 None
2018-06-24 07:00 53 51 - 93 270° 2 - - 29.75 0 None
2018-06-24 06:00 53 52 - 94 290° 1 - - 29.77 0 None
2018-06-24 05:00 53 51 - 94 350° 2 - - 29.80 0 1-hr Precip Total: 0.04"
2018-06-24 04:00 53 51 - 92 - Calm - - 29.84 0 1-hr Precip Total: 0.28"
2018-06-24 03:00 56 53 - 91 - Calm - - 29.85 0 1-hr Precip Total: 0.09"
2018-06-24 02:00 55 53 - 94 - Calm - - 29.86 0 None
2018-06-24 01:00 58 55 - 87 - Calm - - 29.87 0 None

Support USWX by starting your Amazon purchase here.